createdAt,value
2019-04-10T00:02:07.208Z,15.78
2019-04-10T00:04:36.953Z,13.25
2019-04-10T00:07:12.793Z,17.65
2019-04-10T00:09:37.610Z,10.78
2019-04-10T00:12:07.879Z,9.98
2019-04-10T00:14:36.974Z,10.58
2019-04-10T00:17:06.954Z,13.08
2019-04-10T00:19:36.209Z,11.70
2019-04-10T00:22:06.313Z,13.18
2019-04-10T00:24:35.721Z,12.55
2019-04-10T00:27:04.844Z,10.58
2019-04-10T00:29:33.959Z,10.68
2019-04-10T00:32:03.759Z,8.90
2019-04-10T00:34:33.801Z,10.88
2019-04-10T00:37:03.772Z,12.28
2019-04-10T00:39:33.004Z,12.80
2019-04-10T00:42:03.002Z,13.30
2019-04-10T00:44:32.200Z,10.60
2019-04-10T00:47:02.367Z,9.10
2019-04-10T00:49:31.623Z,11.25
2019-04-10T00:52:00.824Z,12.55
2019-04-10T00:54:30.934Z,11.53
2019-04-10T00:57:01.034Z,11.95
2019-04-10T00:59:30.391Z,9.30
2019-04-10T01:02:00.375Z,9.28
2019-04-10T01:04:30.632Z,11.90
2019-04-10T01:07:00.538Z,8.70
2019-04-10T01:09:29.723Z,10.05
2019-04-10T01:11:59.367Z,10.15
2019-04-10T01:14:29.653Z,9.55
2019-04-10T01:16:59.923Z,10.50
2019-04-10T01:19:30.111Z,9.65
2019-04-10T01:21:59.476Z,10.53
2019-04-10T01:24:29.916Z,9.28
2019-04-10T01:26:59.318Z,9.33
2019-04-10T01:29:29.276Z,10.20
2019-04-10T01:31:59.443Z,9.95
2019-04-10T01:34:29.541Z,12.03
2019-04-10T01:36:58.657Z,9.85
2019-04-10T01:39:30.471Z,9.85
2019-04-10T01:42:00.602Z,11.73
2019-04-10T01:44:30.830Z,11.43
2019-04-10T01:47:00.089Z,10.88
2019-04-10T01:49:29.491Z,9.33
2019-04-10T01:51:59.487Z,10.35
2019-04-10T01:54:29.151Z,9.85
2019-04-10T01:56:58.233Z,10.78
2019-04-10T01:59:28.647Z,9.65
2019-04-10T02:02:05.491Z,11.85
2019-04-10T02:04:35.192Z,10.82
2019-04-10T02:07:04.275Z,10.60
2019-04-10T02:09:33.445Z,8.28
2019-04-10T02:12:02.705Z,11.28
2019-04-10T02:14:32.144Z,12.25
2019-04-10T02:17:01.422Z,10.50
2019-04-10T02:19:30.808Z,11.93
2019-04-10T02:22:00.292Z,13.68
2019-04-10T02:24:29.582Z,10.20
2019-04-10T02:26:58.936Z,8.30
2019-04-10T02:29:28.110Z,8.73
2019-04-10T02:31:57.538Z,10.53
2019-04-10T02:34:28.311Z,13.50
2019-04-10T02:36:58.583Z,9.48
2019-04-10T02:39:37.430Z,9.50
2019-04-10T02:42:00.371Z,11.43
2019-04-10T02:44:30.599Z,9.95
2019-04-10T02:46:59.988Z,7.80
2019-04-10T02:49:29.982Z,8.80
2019-04-10T02:51:59.324Z,11.05
2019-04-10T02:54:29.041Z,11.22
2019-04-10T02:56:58.645Z,14.20
2019-04-10T02:59:29.068Z,10.15
2019-04-10T03:02:00.096Z,8.65
2019-04-10T03:04:30.950Z,12.85
2019-04-10T03:07:00.148Z,9.75
2019-04-10T03:09:46.033Z,14.53
2019-04-10T03:12:00.686Z,12.18
2019-04-10T03:14:30.092Z,11.30
2019-04-10T03:16:59.774Z,11.90
2019-04-10T03:19:29.637Z,9.95
2019-04-10T03:21:59.612Z,11.60
2019-04-10T03:24:29.489Z,8.45
2019-04-10T03:26:58.886Z,11.15
2019-04-10T03:29:28.298Z,9.28
2019-04-10T03:31:59.479Z,13.13
2019-04-10T03:34:33.142Z,12.68
2019-04-10T03:37:01.664Z,10.58
2019-04-10T03:39:34.627Z,12.60
2019-04-10T03:42:02.752Z,11.78
2019-04-10T03:44:32.549Z,10.88
2019-04-10T03:47:02.829Z,12.50
2019-04-10T03:49:32.271Z,12.68
2019-04-10T03:52:01.535Z,8.30
2019-04-10T03:54:30.789Z,9.43
2019-04-10T03:57:00.399Z,12.35
2019-04-10T03:59:30.520Z,10.68
2019-04-10T04:01:59.831Z,10.80
2019-04-10T04:04:29.253Z,13.38
2019-04-10T04:06:58.484Z,11.45
2019-04-10T04:09:27.748Z,11.10
2019-04-10T04:11:57.875Z,10.82
2019-04-10T04:14:28.396Z,13.25
2019-04-10T04:16:57.774Z,11.38
2019-04-10T04:19:28.191Z,10.40
2019-04-10T04:21:58.406Z,10.05
2019-04-10T04:24:28.098Z,12.20
2019-04-10T04:26:57.521Z,10.60
2019-04-10T04:29:26.912Z,9.98
2019-04-10T04:31:56.898Z,13.32
2019-04-10T04:34:27.242Z,12.13
2019-04-10T04:36:56.573Z,12.60
2019-04-10T04:39:28.094Z,16.02
2019-04-10T04:41:56.734Z,8.88
2019-04-10T04:44:26.956Z,9.60
2019-04-10T04:46:57.033Z,8.43
2019-04-10T04:49:26.482Z,14.38
2019-04-10T04:51:55.551Z,17.90
2019-04-10T04:54:25.535Z,13.72
2019-04-10T04:56:54.803Z,10.55
2019-04-10T04:59:23.973Z,11.40
2019-04-10T05:01:53.193Z,11.03
2019-04-10T05:04:22.924Z,12.53
2019-04-10T05:06:52.141Z,10.58
2019-04-10T05:09:31.029Z,9.25
2019-04-10T05:11:53.015Z,9.08
2019-04-10T05:14:22.267Z,9.78
2019-04-10T05:16:52.047Z,8.35
2019-04-10T05:19:21.241Z,9.88
2019-04-10T05:21:50.435Z,9.35
2019-04-10T05:24:19.980Z,10.58
2019-04-10T05:26:49.180Z,15.83
2019-04-10T05:29:19.564Z,9.35
2019-04-10T05:31:48.994Z,12.53
2019-04-10T05:34:18.123Z,8.15
2019-04-10T05:36:47.372Z,10.23
2019-04-10T05:39:16.866Z,11.60
2019-04-10T05:41:47.010Z,9.00
2019-04-10T05:44:17.950Z,13.53
2019-04-10T05:46:47.602Z,16.42
2019-04-10T05:49:17.105Z,12.23
2019-04-10T05:51:46.213Z,12.10
2019-04-10T05:54:15.492Z,11.63
2019-04-10T05:56:44.838Z,9.75
2019-04-10T05:59:14.625Z,16.02
2019-04-10T06:01:44.637Z,10.90
2019-04-10T06:04:14.749Z,8.68
2019-04-10T06:06:44.323Z,11.25
2019-04-10T06:09:14.291Z,10.38
2019-04-10T06:11:45.420Z,13.32
2019-04-10T06:14:14.357Z,10.78
2019-04-10T06:16:44.613Z,8.08
2019-04-10T06:19:13.993Z,8.48
2019-04-10T06:21:43.975Z,9.18
2019-04-10T06:24:14.155Z,9.78
2019-04-10T06:26:43.692Z,6.80
2019-04-10T06:29:12.992Z,11.90
2019-04-10T06:31:42.986Z,10.03
2019-04-10T06:34:14.290Z,7.78
2019-04-10T06:36:43.846Z,9.25
2019-04-10T06:39:13.068Z,9.73
2019-04-10T06:41:43.105Z,8.65
2019-04-10T06:44:12.400Z,10.18
2019-04-10T06:46:41.829Z,8.75
2019-04-10T06:49:12.189Z,14.65
2019-04-10T06:51:41.562Z,9.00
2019-04-10T06:54:11.759Z,9.13
2019-04-10T06:56:41.444Z,9.75
2019-04-10T06:59:10.755Z,9.30
2019-04-10T07:01:47.814Z,9.40
2019-04-10T07:04:11.494Z,7.15
2019-04-10T07:06:53.448Z,7.67
2019-04-10T07:09:13.818Z,6.78
2019-04-10T07:11:43.116Z,10.70
2019-04-10T07:14:14.345Z,9.75
2019-04-10T07:16:44.251Z,8.70
2019-04-10T07:19:13.441Z,10.25
2019-04-10T07:21:42.777Z,9.63
2019-04-10T07:24:14.717Z,7.45
2019-04-10T07:26:45.969Z,6.70
2019-04-10T07:29:19.706Z,9.28
2019-04-10T07:31:44.735Z,8.28
2019-04-10T07:34:15.034Z,8.58
2019-04-10T07:36:45.499Z,8.58
2019-04-10T07:39:15.223Z,9.43
2019-04-10T07:41:45.254Z,7.50
2019-04-10T07:44:14.583Z,10.60
2019-04-10T07:46:45.324Z,12.00
2019-04-10T07:49:16.825Z,9.40
2019-04-10T07:51:47.671Z,10.43
2019-04-10T07:54:19.989Z,15.40
2019-04-10T07:56:47.281Z,8.95
2019-04-10T07:59:16.604Z,8.43
2019-04-10T08:01:45.715Z,9.55
2019-04-10T08:04:15.056Z,9.23
2019-04-10T08:06:44.722Z,13.50
2019-04-10T08:09:14.785Z,9.85
2019-04-10T08:11:44.830Z,9.73
2019-04-10T08:14:14.848Z,15.45
2019-04-10T08:16:43.907Z,11.53
2019-04-10T08:19:13.104Z,10.10
2019-04-10T08:21:42.396Z,7.70
2019-04-10T08:24:11.613Z,8.08
2019-04-10T08:26:40.987Z,10.00
2019-04-10T08:29:10.176Z,8.70
2019-04-10T08:31:39.700Z,9.75
2019-04-10T08:34:09.009Z,10.45
2019-04-10T08:36:39.390Z,8.30
2019-04-10T08:39:09.135Z,9.78
2019-04-10T08:41:38.436Z,9.20
2019-04-10T08:44:07.680Z,11.35
2019-04-10T08:46:37.752Z,8.75
2019-04-10T08:49:07.796Z,9.78
2019-04-10T08:51:37.026Z,9.30
2019-04-10T08:54:06.221Z,9.03
2019-04-10T08:56:36.441Z,11.08
2019-04-10T08:59:05.788Z,7.92
2019-04-10T09:01:35.520Z,9.68
2019-04-10T09:04:05.705Z,12.70
2019-04-10T09:06:35.548Z,12.10
2019-04-10T09:09:06.255Z,13.65
2019-04-10T09:11:35.552Z,14.10
2019-04-10T09:14:05.176Z,9.90
2019-04-10T09:16:34.508Z,13.35
2019-04-10T09:19:03.793Z,10.85
2019-04-10T09:21:33.080Z,9.55
2019-04-10T09:24:02.676Z,10.05
2019-04-10T09:26:32.743Z,10.25
2019-04-10T09:29:02.542Z,10.00
2019-04-10T09:31:31.795Z,10.25
2019-04-10T09:34:01.216Z,11.45
2019-04-10T09:36:30.572Z,14.07
2019-04-10T09:38:59.792Z,13.05
2019-04-10T09:41:30.010Z,11.35
2019-04-10T09:44:00.286Z,12.60
2019-04-10T09:46:29.416Z,14.07
2019-04-10T09:48:58.810Z,9.30
2019-04-10T09:51:27.925Z,11.90
2019-04-10T09:53:57.364Z,10.60
2019-04-10T09:56:27.588Z,11.43
2019-04-10T09:58:57.020Z,11.12
2019-04-10T10:01:27.566Z,11.22
2019-04-10T10:03:57.059Z,12.43
2019-04-10T10:06:32.902Z,11.83
2019-04-10T10:08:57.176Z,12.23
2019-04-10T10:11:27.205Z,12.78
2019-04-10T10:13:56.440Z,13.60
2019-04-10T10:16:25.589Z,11.80
2019-04-10T10:18:55.004Z,11.88
2019-04-10T10:21:24.303Z,12.95
2019-04-10T10:23:54.036Z,12.35
2019-04-10T10:26:23.947Z,12.53
2019-04-10T10:28:54.483Z,14.13
2019-04-10T10:31:24.201Z,12.15
2019-04-10T10:33:54.990Z,10.98
2019-04-10T10:36:34.620Z,13.93
2019-04-10T10:39:05.219Z,10.88
2019-04-10T10:41:26.456Z,15.85
2019-04-10T10:43:56.436Z,12.45
2019-04-10T10:46:27.202Z,11.75
2019-04-10T10:48:56.425Z,11.95
2019-04-10T10:51:26.707Z,14.15
2019-04-10T10:53:56.674Z,12.68
2019-04-10T10:56:26.748Z,12.65
2019-04-10T10:58:57.774Z,11.70
2019-04-10T11:01:27.551Z,11.35
2019-04-10T11:03:56.890Z,11.35
2019-04-10T11:06:26.853Z,12.40
2019-04-10T11:08:56.591Z,10.90
2019-04-10T11:11:25.827Z,12.45
2019-04-10T11:13:55.146Z,13.20
2019-04-10T11:16:24.841Z,11.97
2019-04-10T11:18:55.045Z,11.25
2019-04-10T11:21:24.788Z,11.85
2019-04-10T11:23:55.513Z,12.88
2019-04-10T11:26:25.745Z,11.70
2019-04-10T11:28:55.714Z,12.40
2019-04-10T11:31:25.193Z,13.98
2019-04-10T11:36:26.004Z,13.70
2019-04-10T11:39:04.659Z,14.78
2019-04-10T11:41:26.329Z,13.70
2019-04-10T11:43:56.168Z,12.23
2019-04-10T11:46:28.277Z,12.10
2019-04-10T11:48:56.253Z,13.88
2019-04-10T11:51:27.129Z,12.30
2019-04-10T11:53:57.097Z,12.60
2019-04-10T11:56:29.201Z,13.45
2019-04-10T11:58:59.290Z,12.45
2019-04-10T12:01:30.983Z,13.38
2019-04-10T12:04:00.393Z,12.50
2019-04-10T12:06:33.243Z,14.10
2019-04-10T12:09:32.054Z,12.35
2019-04-10T12:11:33.123Z,12.63
2019-04-10T12:14:02.989Z,11.68
2019-04-10T12:16:33.416Z,12.45
2019-04-10T12:19:02.790Z,12.40
2019-04-10T12:21:32.068Z,13.32
2019-04-10T12:24:01.309Z,12.43
2019-04-10T12:26:30.547Z,11.63
2019-04-10T12:29:00.363Z,12.50
2019-04-10T12:31:30.196Z,12.25
2019-04-10T12:34:00.348Z,11.03
2019-04-10T12:36:30.976Z,11.45
2019-04-10T12:39:00.398Z,12.63
2019-04-10T12:41:29.616Z,11.55
2019-04-10T12:43:59.093Z,15.98
2019-04-10T12:46:28.924Z,12.05
2019-04-10T12:49:00.110Z,14.15
2019-04-10T12:51:29.764Z,14.20
2019-04-10T12:54:01.007Z,11.48
2019-04-10T12:56:30.396Z,10.90
2019-04-10T12:58:59.561Z,10.50
2019-04-10T13:01:28.960Z,13.15
2019-04-10T13:03:58.341Z,12.13
2019-04-10T13:06:27.632Z,11.78
2019-04-10T13:09:05.709Z,10.98
2019-04-10T13:11:28.869Z,11.68
2019-04-10T13:13:58.294Z,13.55
2019-04-10T13:16:27.981Z,12.28
2019-04-10T13:18:57.580Z,11.57
2019-04-10T13:21:26.900Z,13.53
2019-04-10T13:23:57.203Z,11.30
2019-04-10T13:26:26.616Z,11.93
2019-04-10T13:28:56.116Z,12.23
2019-04-10T13:31:25.575Z,11.70
2019-04-10T13:33:55.117Z,13.93
2019-04-10T13:36:24.352Z,11.43
2019-04-10T13:38:54.716Z,12.75
2019-04-10T13:41:24.171Z,10.55
2019-04-10T13:43:53.983Z,11.28
2019-04-10T13:46:23.281Z,12.13
2019-04-10T13:48:53.448Z,12.30
2019-04-10T13:51:23.420Z,11.53
2019-04-10T13:53:52.750Z,11.88
2019-04-10T13:56:22.936Z,12.25
2019-04-10T13:58:52.992Z,11.90
2019-04-10T14:01:33.549Z,12.65
2019-04-10T14:04:03.012Z,11.88
2019-04-10T14:06:32.128Z,12.23
2019-04-10T14:09:19.402Z,10.90
2019-04-10T14:11:33.254Z,10.28
2019-04-10T14:14:02.586Z,10.78
2019-04-10T14:16:32.846Z,11.18
2019-04-10T14:19:03.281Z,10.20
2019-04-10T14:21:36.002Z,11.85
2019-04-10T14:24:05.529Z,10.65
2019-04-10T14:26:44.450Z,11.53
2019-04-10T14:29:11.240Z,11.18
2019-04-10T14:31:51.040Z,10.48
2019-04-10T14:34:21.251Z,9.58
2019-04-10T14:36:50.811Z,12.43
2019-04-10T14:39:21.313Z,10.18
2019-04-10T14:41:51.718Z,10.53
2019-04-10T14:44:21.101Z,11.57
2019-04-10T14:46:50.397Z,11.33
2019-04-10T14:49:20.791Z,13.32
2019-04-10T14:51:50.519Z,9.60
2019-04-10T14:54:19.702Z,12.53
2019-04-10T14:56:48.852Z,9.85
2019-04-10T14:59:18.234Z,9.70
2019-04-10T15:01:48.353Z,12.10
2019-04-10T15:04:17.554Z,8.25
2019-04-10T15:06:47.876Z,9.20
2019-04-10T15:09:24.146Z,10.78
2019-04-10T15:11:49.086Z,10.18
2019-04-10T15:14:19.335Z,7.70
2019-04-10T15:16:58.806Z,8.43
2019-04-10T15:19:20.444Z,11.22
2019-04-10T15:21:49.565Z,8.10
2019-04-10T15:24:19.467Z,9.08
2019-04-10T15:26:48.898Z,9.43
2019-04-10T15:29:18.364Z,10.48
2019-04-10T15:31:48.104Z,8.25
2019-04-10T15:34:18.317Z,9.15
2019-04-10T15:36:49.090Z,10.68
2019-04-10T15:39:25.791Z,7.33
2019-04-10T15:41:49.731Z,8.08
2019-04-10T15:44:19.005Z,13.15
2019-04-10T15:46:49.077Z,7.12
2019-04-10T15:49:19.384Z,8.68
2019-04-10T15:51:49.643Z,9.25
2019-04-10T15:54:19.077Z,9.08
2019-04-10T15:56:48.620Z,9.28
2019-04-10T15:59:17.728Z,9.08
2019-04-10T16:01:46.981Z,7.78
2019-04-10T16:04:17.089Z,9.08
2019-04-10T16:06:47.301Z,9.83
2019-04-10T16:09:16.912Z,8.63
2019-04-10T16:11:47.584Z,9.15
2019-04-10T16:14:22.766Z,8.35
2019-04-10T16:16:49.210Z,7.30
2019-04-10T16:19:32.060Z,10.20
2019-04-10T16:22:10.749Z,8.03
2019-04-10T16:24:40.782Z,7.03
2019-04-10T16:27:10.246Z,6.97
2019-04-10T16:29:40.621Z,8.15
2019-04-10T16:32:10.697Z,9.80
2019-04-10T16:34:40.848Z,8.65
2019-04-10T16:37:10.401Z,7.25
2019-04-10T16:39:40.347Z,6.78
2019-04-10T16:42:10.530Z,8.05
2019-04-10T16:44:39.717Z,6.72
2019-04-10T16:47:09.961Z,5.85
2019-04-10T16:49:39.286Z,8.23
2019-04-10T16:52:09.142Z,7.08
2019-04-10T16:54:38.443Z,6.87
2019-04-10T16:57:07.754Z,6.92
2019-04-10T16:59:37.555Z,8.28
2019-04-10T17:02:07.295Z,7.53
2019-04-10T17:04:36.728Z,7.62
2019-04-10T17:07:09.148Z,7.03
2019-04-10T17:09:38.424Z,8.45
2019-04-10T17:12:07.683Z,8.13
2019-04-10T17:14:37.857Z,9.60
2019-04-10T17:17:08.357Z,6.70
2019-04-10T17:19:46.597Z,8.75
2019-04-10T17:22:09.119Z,6.80
2019-04-10T17:24:39.762Z,7.00
2019-04-10T17:27:11.081Z,7.20
2019-04-10T17:29:41.103Z,8.53
2019-04-10T17:32:12.981Z,9.93
2019-04-10T17:34:45.140Z,6.70
2019-04-10T17:37:15.809Z,7.35
2019-04-10T17:39:47.340Z,9.25
2019-04-10T17:42:24.018Z,10.32
2019-04-10T17:44:56.184Z,8.83
2019-04-10T17:47:29.318Z,7.03
2019-04-10T17:50:03.566Z,7.60
2019-04-10T17:55:11.447Z,7.83
2019-04-10T17:57:46.410Z,6.80
2019-04-10T18:00:31.347Z,6.80
2019-04-10T18:03:01.324Z,7.42
2019-04-10T18:05:32.882Z,9.65
2019-04-10T18:08:02.973Z,7.25
2019-04-10T18:10:44.733Z,8.35
2019-04-10T18:13:06.891Z,8.00
2019-04-10T18:15:37.863Z,8.98
2019-04-10T18:18:07.343Z,7.05
2019-04-10T18:20:37.237Z,8.93
2019-04-10T18:23:07.273Z,7.60
2019-04-10T18:25:36.752Z,8.58
2019-04-10T18:28:07.473Z,7.75
2019-04-10T18:30:38.328Z,6.33
2019-04-10T18:33:10.076Z,6.22
2019-04-10T18:35:41.171Z,7.22
2019-04-10T18:38:15.721Z,7.62
2019-04-10T18:40:55.963Z,8.00
2019-04-10T18:43:24.502Z,6.83
2019-04-10T18:46:06.234Z,7.58
2019-04-10T18:48:32.571Z,7.50
2019-04-10T18:53:39.691Z,9.63
2019-04-10T18:56:11.122Z,6.55
2019-04-10T18:58:45.972Z,8.45
2019-04-10T19:01:17.583Z,7.80
2019-04-10T19:03:54.996Z,5.97
2019-04-10T19:06:22.533Z,6.78
2019-04-10T19:09:05.055Z,7.58
2019-04-10T19:11:29.104Z,6.87
2019-04-10T19:13:57.260Z,9.63
2019-04-10T19:16:28.097Z,6.30
2019-04-10T19:18:59.992Z,6.12
2019-04-10T19:21:35.632Z,6.50
2019-04-10T19:24:12.054Z,6.90
2019-04-10T19:26:47.430Z,6.17
2019-04-10T19:29:21.389Z,8.30
2019-04-10T19:31:58.197Z,6.05
2019-04-10T19:34:33.685Z,6.58
2019-04-10T19:37:09.134Z,5.97
2019-04-10T19:39:42.487Z,6.72
2019-04-10T19:42:17.452Z,6.03
2019-04-10T19:44:59.631Z,6.30
2019-04-10T19:47:34.660Z,6.05
2019-04-10T19:50:14.007Z,6.10
2019-04-10T19:52:46.957Z,7.15
2019-04-10T19:55:19.827Z,7.17
2019-04-10T19:57:53.238Z,6.05
2019-04-10T20:00:28.492Z,7.25
2019-04-10T20:03:01.502Z,6.53
2019-04-10T20:05:34.823Z,7.58
2019-04-10T20:08:05.814Z,5.17
2019-04-10T20:10:37.342Z,7.22
2019-04-10T20:13:07.463Z,7.53
2019-04-10T20:15:38.497Z,8.38
2019-04-10T20:18:10.598Z,8.83
2019-04-10T20:20:43.702Z,7.20
2019-04-10T20:23:14.573Z,6.15
2019-04-10T20:25:44.703Z,5.37
2019-04-10T20:28:14.970Z,5.35
2019-04-10T20:30:44.737Z,7.90
2019-04-10T20:33:14.903Z,5.45
2019-04-10T20:35:44.724Z,8.03
2019-04-10T20:38:15.466Z,11.55
2019-04-10T20:40:44.809Z,7.83
2019-04-10T20:43:15.039Z,7.35
2019-04-10T20:45:47.579Z,6.35
2019-04-10T20:48:17.130Z,5.72
2019-04-10T20:50:46.311Z,5.45
2019-04-10T20:53:15.914Z,5.25
2019-04-10T20:55:46.047Z,7.00
2019-04-10T20:58:15.535Z,5.70
2019-04-10T21:00:44.959Z,5.80
2019-04-10T21:03:14.158Z,11.75
2019-04-10T21:05:44.457Z,5.05
2019-04-10T21:08:13.822Z,9.35
2019-04-10T21:10:42.989Z,7.40
2019-04-10T21:13:12.941Z,4.78
2019-04-10T21:15:42.328Z,4.25
2019-04-10T21:18:11.333Z,6.83
2019-04-10T21:20:40.849Z,5.87
2019-04-10T21:23:11.004Z,7.05
2019-04-10T21:25:40.175Z,6.97
2019-04-10T21:28:09.746Z,5.35
2019-04-10T21:30:56.666Z,5.35
2019-04-10T21:33:30.456Z,4.37
2019-04-10T21:35:59.753Z,4.33
2019-04-10T21:38:30.150Z,5.87
2019-04-10T21:40:59.524Z,5.87
2019-04-10T21:43:28.669Z,4.72
2019-04-10T21:45:57.840Z,7.15
2019-04-10T21:48:27.128Z,6.00
2019-04-10T21:50:56.369Z,5.20
2019-04-10T21:53:26.229Z,7.05
2019-04-10T21:55:55.749Z,4.92
2019-04-10T21:58:25.045Z,5.85
2019-04-10T22:01:01.650Z,4.33
2019-04-10T22:03:31.706Z,3.75
2019-04-10T22:06:19.752Z,6.30
2019-04-10T22:09:10.302Z,9.20
2019-04-10T22:11:39.661Z,4.33
2019-04-10T22:14:09.092Z,7.62
2019-04-10T22:16:38.732Z,5.47
2019-04-10T22:19:08.179Z,6.00
2019-04-10T22:21:37.606Z,4.00
2019-04-10T22:24:07.354Z,5.03
2019-04-10T22:26:36.425Z,6.58
2019-04-10T22:29:05.685Z,4.17
2019-04-10T22:31:35.753Z,4.53
2019-04-10T22:34:05.170Z,4.62
2019-04-10T22:36:35.330Z,4.83
2019-04-10T22:39:04.880Z,4.25
2019-04-10T22:41:35.172Z,4.08
2019-04-10T22:44:05.473Z,8.58
2019-04-10T22:46:34.833Z,5.62
2019-04-10T22:49:04.240Z,3.80
2019-04-10T22:51:33.323Z,5.78
2019-04-10T22:54:02.442Z,5.62
2019-04-10T22:56:31.702Z,2.90
2019-04-10T22:59:01.726Z,5.70
2019-04-10T23:01:31.315Z,7.50
2019-04-10T23:04:01.658Z,5.70
2019-04-10T23:06:31.352Z,8.28
2019-04-10T23:09:00.560Z,6.28
2019-04-10T23:11:37.653Z,3.83
2019-04-10T23:14:00.705Z,6.03
2019-04-10T23:16:30.362Z,3.70
2019-04-10T23:18:59.632Z,3.92
2019-04-10T23:21:29.016Z,5.35
2019-04-10T23:23:59.114Z,10.65
2019-04-10T23:26:29.122Z,4.85
2019-04-10T23:28:58.432Z,5.50
2019-04-10T23:31:27.885Z,6.90
2019-04-10T23:33:58.572Z,4.53
2019-04-10T23:36:27.852Z,4.05
2019-04-10T23:38:57.625Z,6.62
2019-04-10T23:41:26.709Z,4.50
2019-04-10T23:43:55.909Z,4.37
2019-04-10T23:46:26.315Z,4.28
2019-04-10T23:48:55.571Z,5.05
2019-04-10T23:51:25.182Z,3.72
2019-04-10T23:53:55.086Z,4.28
2019-04-10T23:56:24.277Z,6.22
2019-04-10T23:58:54.130Z,5.25
